Time;durP1;ratioP1;P1;durP2;ratioP2;P2;SDS_P1;SDS_P2;PMS_P1;PMS_P2;Temp;Humidity;BMP_temperature;BMP_pressure;BME280_temperature;BME280_humidity;BME280_pressure;Samples;Min_cycle;Max_cycle;Signal;HPM_P1;HPM_P2
2023/07/05 00:00:16;;;;;;;;;11.00;9.00;;;;;-143.57;100.00;65101.44;5017740;28;45223;-52
2023/07/05 00:02:42;;;;;;;;;13.00;10.00;;;;;-143.57;100.00;65101.44;5017054;28;47086;-54
2023/07/05 00:05:07;;;;;;;;;13.67;12.00;;;;;-143.57;100.00;65101.44;5017535;28;45447;-59
2023/07/05 00:07:33;;;;;;;;;9.33;9.00;;;;;-143.57;100.00;65101.44;5017473;28;45525;-55
2023/07/05 00:09:59;;;;;;;;;10.00;9.00;;;;;-143.57;100.00;65101.44;5016457;28;45314;-59
2023/07/05 00:12:24;;;;;;;;;10.33;9.67;;;;;-143.57;100.00;65101.44;5016322;28;45350;-63
2023/07/05 00:14:49;;;;;;;;;13.00;10.00;;;;;-143.57;100.00;65101.44;5017058;28;45825;-57
2023/07/05 00:17:14;;;;;;;;;7.67;7.33;;;;;-143.57;100.00;65101.44;5017234;28;45393;-61
2023/07/05 00:19:41;;;;;;;;;14.67;10.67;;;;;-143.57;100.00;65101.44;5017366;28;45360;-64
2023/07/05 00:22:06;;;;;;;;;11.33;8.67;;;;;-143.57;100.00;65101.44;5016946;28;45419;-57
2023/07/05 00:24:32;;;;;;;;;9.00;8.00;;;;;-143.57;100.00;65101.44;5016770;28;45396;-63
2023/07/05 00:26:57;;;;;;;;;13.00;9.00;;;;;-143.57;100.00;65101.44;5017016;28;45206;-64
2023/07/05 00:29:22;;;;;;;;;10.33;8.33;;;;;-143.57;100.00;65101.44;5017011;28;45383;-61
2023/07/05 00:31:48;;;;;;;;;8.33;7.33;;;;;-143.57;100.00;65101.44;5016747;28;47553;-58
2023/07/05 00:34:13;;;;;;;;;12.00;10.67;;;;;-143.57;100.00;65101.44;5016782;28;45219;-45
2023/07/05 00:36:39;;;;;;;;;9.67;7.00;;;;;-143.57;100.00;65101.44;5016889;28;45240;-46
2023/07/05 00:39:04;;;;;;;;;14.67;7.67;;;;;-143.57;100.00;65101.44;5016979;28;45458;-48
2023/07/05 00:41:30;;;;;;;;;10.33;6.67;;;;;-143.57;100.00;65101.44;4998743;28;47232;-57
2023/07/05 00:43:55;;;;;;;;;11.33;7.33;;;;;-143.57;100.00;65101.44;5016550;28;45426;-47
2023/07/05 00:46:30;;;;;;;;;11.00;9.00;;;;;-143.57;100.00;65101.44;5016659;28;45271;-44
2023/07/05 00:48:59;;;;;;;;;12.33;9.33;;;;;-143.57;100.00;65101.44;5016811;28;45475;-43
2023/07/05 00:51:42;;;;;;;;;9.33;8.67;;;;;-143.57;100.00;65101.44;5015369;28;45694;-47
2023/07/05 00:54:07;;;;;;;;;14.33;10.67;;;;;-143.57;100.00;65101.44;5016332;28;45288;-47
2023/07/05 00:56:43;;;;;;;;;17.00;13.00;;;;;-143.57;100.00;65101.44;5016622;28;45349;-45
2023/07/05 00:59:12;;;;;;;;;14.00;10.00;;;;;-143.57;100.00;65101.44;5016772;28;45565;-44
2023/07/05 01:01:39;;;;;;;;;8.33;6.00;;;;;-143.57;100.00;65101.44;5016199;28;46649;-48
2023/07/05 01:04:04;;;;;;;;;13.67;8.33;;;;;-143.57;100.00;65101.44;5016246;28;45295;-44
2023/07/05 01:06:30;;;;;;;;;12.00;8.00;;;;;-143.57;100.00;65101.44;5016631;28;45228;-57
2023/07/05 01:08:56;;;;;;;;;9.00;7.67;;;;;-143.57;100.00;65101.44;5016510;28;46063;-54
2023/07/05 01:11:43;;;;;;;;;12.00;7.67;;;;;-143.57;100.00;65101.44;5016386;28;46314;-54
2023/07/05 01:14:27;;;;;;;;;10.00;5.00;;;;;-143.57;100.00;65101.44;5016531;28;45336;-61
2023/07/05 01:16:58;;;;;;;;;7.00;7.00;;;;;-143.57;100.00;65101.44;5016309;28;45473;-51
2023/07/05 01:19:42;;;;;;;;;6.67;6.67;;;;;-143.57;100.00;65101.44;5016517;28;45280;-53
2023/07/05 01:22:23;;;;;;;;;11.00;6.00;;;;;-143.57;100.00;65101.44;5017601;28;46350;-44
2023/07/05 01:25:25;;;;;;;;;8.67;8.33;;;;;-143.57;100.00;65101.44;5019480;28;45283;-44
2023/07/05 01:27:51;;;;;;;;;10.33;6.67;;;;;-143.57;100.00;65101.44;5019652;28;45376;-55
2023/07/05 01:30:35;;;;;;;;;6.00;4.67;;;;;-143.57;100.00;65101.44;5019894;28;45489;-50
2023/07/05 01:33:09;;;;;;;;;13.00;5.00;;;;;-143.57;100.00;65101.44;5019524;28;46976;-50
2023/07/05 01:35:39;;;;;;;;;8.67;6.00;;;;;-143.57;100.00;65101.44;5019293;28;45449;-48
2023/07/05 01:38:06;;;;;;;;;7.33;6.00;;;;;-143.57;100.00;65101.44;5019492;28;45355;-43
2023/07/05 01:40:31;;;;;;;;;8.67;6.33;;;;;-143.57;100.00;65101.44;5019439;28;45342;-45
2023/07/05 01:43:00;;;;;;;;;6.00;4.33;;;;;-143.57;100.00;65101.44;5001195;28;47255;-46
2023/07/05 01:45:53;;;;;;;;;5.00;5.00;;;;;-143.57;100.00;65101.44;5019234;28;45416;-43
2023/07/05 01:48:45;;;;;;;;;6.00;5.00;;;;;-143.57;100.00;65101.44;5019416;28;45231;-54
2023/07/05 01:51:28;;;;;;;;;6.67;4.67;;;;;-143.57;100.00;65101.44;5019421;28;45525;-45
2023/07/05 01:54:12;;;;;;;;;6.33;4.33;;;;;-143.57;100.00;65101.44;5018806;28;47025;-57
2023/07/05 01:56:56;;;;;;;;;9.33;4.00;;;;;-143.57;100.00;65101.44;5019207;28;45369;-44
2023/07/05 01:59:25;;;;;;;;;3.00;3.00;;;;;-143.57;100.00;65101.44;5019099;28;45332;-51
2023/07/05 02:01:54;;;;;;;;;6.33;5.00;;;;;-143.57;100.00;65101.44;5018518;28;45357;-52
2023/07/05 02:04:22;;;;;;;;;2.75;2.75;;;;;-143.57;100.00;65101.44;5018792;28;46959;-55
2023/07/05 02:06:49;;;;;;;;;4.67;4.00;;;;;-143.57;100.00;65101.44;5018895;28;45461;-54
2023/07/05 02:09:14;;;;;;;;;6.33;6.33;;;;;-143.57;100.00;65101.44;5018809;28;45393;-54
2023/07/05 02:11:40;;;;;;;;;7.33;3.33;;;;;-143.57;100.00;65101.44;5018876;28;45476;-49
2023/07/05 02:14:05;;;;;;;;;5.67;5.00;;;;;-143.57;100.00;65101.44;5018781;28;46998;-53
2023/07/05 02:16:30;;;;;;;;;3.00;3.00;;;;;-143.57;100.00;65101.44;5018508;28;45430;-52
2023/07/05 02:18:56;;;;;;;;;7.33;4.00;;;;;-143.57;100.00;65101.44;5018878;28;45409;-58
2023/07/05 02:21:21;;;;;;;;;6.00;3.00;;;;;-143.57;100.00;65101.44;5019118;28;45257;-55
2023/07/05 02:23:46;;;;;;;;;4.00;3.00;;;;;-143.57;100.00;65101.44;5018647;28;47072;-60
2023/07/05 02:26:12;;;;;;;;;3.00;2.00;;;;;-143.57;100.00;65101.44;5018697;28;45514;-57
2023/07/05 02:28:37;;;;;;;;;3.67;3.67;;;;;-143.57;100.00;65101.44;5018866;28;45263;-44
2023/07/05 02:31:06;;;;;;;;;2.33;1.00;;;;;-143.57;100.00;65101.44;5001158;28;45299;-56
2023/07/05 02:33:34;;;;;;;;;3.67;3.00;;;;;-143.57;100.00;65101.44;5017978;28;46200;-61
2023/07/05 02:36:05;;;;;;;;;5.67;4.00;;;;;-143.57;100.00;65101.44;5018507;28;45306;-60
2023/07/05 02:38:31;;;;;;;;;2.67;2.67;;;;;-143.57;100.00;65101.44;5000678;28;45332;-60
2023/07/05 02:40:56;;;;;;;;;3.00;3.00;;;;;-143.57;100.00;65101.44;5018782;28;45869;-54
2023/07/05 02:43:21;;;;;;;;;2.00;2.00;;;;;-143.57;100.00;65101.44;5018264;28;50314;-63
2023/07/05 02:45:48;;;;;;;;;3.33;2.67;;;;;-143.57;100.00;65101.44;5018379;28;45418;-62
2023/07/05 02:48:13;;;;;;;;;3.00;3.00;;;;;-143.57;100.00;65101.44;5018626;28;45375;-63
2023/07/05 02:50:39;;;;;;;;;2.67;2.00;;;;;-143.57;100.00;65101.44;5018527;28;45445;-60
2023/07/05 02:53:05;;;;;;;;;5.00;3.33;;;;;-143.57;100.00;65101.44;5018280;28;45971;-60
2023/07/05 02:55:30;;;;;;;;;2.00;1.33;;;;;-143.57;100.00;65101.44;5018127;28;45406;-61
2023/07/05 02:57:55;;;;;;;;;3.00;3.00;;;;;-143.57;100.00;65101.44;5018519;28;45450;-64
2023/07/05 03:00:21;;;;;;;;;5.33;3.67;;;;;-143.57;100.00;65101.44;5018594;28;45310;-62
2023/07/05 03:02:46;;;;;;;;;2.00;1.00;;;;;-143.57;100.00;65101.44;5017928;28;46247;-52
2023/07/05 03:05:12;;;;;;;;;5.00;3.00;;;;;-143.57;100.00;65101.44;5018173;28;45390;-46
2023/07/05 03:07:38;;;;;;;;;4.00;2.00;;;;;-143.57;100.00;65101.44;5018257;28;45208;-57
2023/07/05 03:10:05;;;;;;;;;5.00;3.00;;;;;-143.57;100.00;65101.44;5018327;28;45291;-43
2023/07/05 03:12:30;;;;;;;;;2.33;2.33;;;;;-143.57;100.00;65101.44;5017886;28;48312;-49
2023/07/05 03:14:56;;;;;;;;;3.00;3.00;;;;;-143.57;100.00;65101.44;5017183;28;45378;-49
2023/07/05 03:17:21;;;;;;;;;2.67;2.33;;;;;-143.57;100.00;65101.44;5018036;28;45444;-51
2023/07/05 03:19:46;;;;;;;;;3.33;2.00;;;;;-143.57;100.00;65101.44;5018111;28;45373;-57
2023/07/05 03:22:12;;;;;;;;;5.00;1.00;;;;;-143.57;100.00;65101.44;5017802;28;46354;-49
2023/07/05 03:24:37;;;;;;;;;1.33;1.00;;;;;-143.57;100.00;65101.44;5017669;28;45654;-48
2023/07/05 03:27:03;;;;;;;;;1.00;1.00;;;;;-143.57;100.00;65101.44;5017750;28;45401;-50
2023/07/05 03:29:28;;;;;;;;;5.00;2.67;;;;;-143.57;100.00;65101.44;5018203;28;45389;-55
2023/07/05 03:31:54;;;;;;;;;2.33;1.33;;;;;-143.57;100.00;65101.44;5017448;28;46199;-44
2023/07/05 03:34:19;;;;;;;;;2.67;1.67;;;;;-143.57;100.00;65101.44;5017416;28;49690;-51
2023/07/05 03:36:44;;;;;;;;;1.33;1.33;;;;;-143.57;100.00;65101.44;5017588;28;45782;-50
2023/07/05 03:39:10;;;;;;;;;2.00;1.67;;;;;-143.57;100.00;65101.44;5017804;28;45386;-54
2023/07/05 03:41:35;;;;;;;;;1.00;1.00;;;;;-143.57;100.00;65101.44;4999245;28;46258;-43
2023/07/05 03:44:01;;;;;;;;;4.00;2.00;;;;;-143.57;100.00;65101.44;5017494;28;45505;-46
2023/07/05 03:46:26;;;;;;;;;1.00;1.00;;;;;-143.57;100.00;65101.44;5016558;28;45330;-50
2023/07/05 03:48:52;;;;;;;;;4.00;1.00;;;;;-143.57;100.00;65101.44;5017662;28;45378;-55
2023/07/05 03:51:20;;;;;;;;;4.33;2.00;;;;;-143.57;100.00;65101.44;5017296;28;46006;-61
2023/07/05 03:53:54;;;;;;;;;2.00;1.33;;;;;-143.57;100.00;65101.44;5017437;28;45402;-52
2023/07/05 03:56:20;;;;;;;;;2.33;1.00;;;;;-143.57;100.00;65101.44;5017595;28;45268;-54
2023/07/05 03:58:46;;;;;;;;;3.00;3.00;;;;;-143.57;100.00;65101.44;5017559;28;45254;-52
2023/07/05 04:01:17;;;;;;;;;3.00;1.33;;;;;-143.57;100.00;65101.44;5017044;28;47230;-49
2023/07/05 04:03:48;;;;;;;;;2.00;2.00;;;;;-143.57;100.00;65101.44;5017090;28;45316;-56
2023/07/05 04:06:14;;;;;;;;;1.67;1.33;;;;;-143.57;100.00;65101.44;5017159;28;45418;-58
2023/07/05 04:08:40;;;;;;;;;2.00;2.00;;;;;-143.57;100.00;65101.44;5017349;28;45463;-49
2023/07/05 04:11:05;;;;;;;;;3.00;1.67;;;;;-143.57;100.00;65101.44;5016727;28;45746;-52
2023/07/05 04:13:31;;;;;;;;;2.00;2.00;;;;;-143.57;100.00;65101.44;4999001;28;45362;-57
2023/07/05 04:16:05;;;;;;;;;2.67;2.33;;;;;-143.57;100.00;65101.44;5016777;28;45445;-49
2023/07/05 04:18:32;;;;;;;;;2.00;2.00;;;;;-143.57;100.00;65101.44;5017172;28;45466;-55
2023/07/05 04:20:58;;;;;;;;;3.00;1.67;;;;;-143.57;100.00;65101.44;5016754;28;45339;-56
2023/07/05 04:23:24;;;;;;;;;4.33;2.00;;;;;-143.57;100.00;65101.44;5016739;28;45318;-58
2023/07/05 04:26:04;;;;;;;;;4.00;2.33;;;;;-143.57;100.00;65101.44;5016754;28;45530;-56
2023/07/05 04:28:31;;;;;;;;;3.33;3.00;;;;;-143.57;100.00;65101.44;5015441;28;45356;-58
2023/07/05 04:30:56;;;;;;;;;5.00;3.00;;;;;-143.57;100.00;65101.44;5016709;28;46309;-52
2023/07/05 04:33:22;;;;;;;;;4.33;2.33;;;;;-143.57;100.00;65101.44;5016092;28;45384;-58
2023/07/05 04:35:52;;;;;;;;;7.00;3.00;;;;;-143.57;100.00;65101.44;5017158;28;45426;-61
2023/07/05 04:38:18;;;;;;;;;5.00;3.00;;;;;-143.57;100.00;65101.44;5017024;28;45291;-57
2023/07/05 04:40:43;;;;;;;;;4.00;2.00;;;;;-143.57;100.00;65101.44;5016389;28;46340;-58
2023/07/05 04:43:09;;;;;;;;;7.00;4.00;;;;;-143.57;100.00;65101.44;5016923;28;45439;-56
2023/07/05 04:45:34;;;;;;;;;4.33;4.00;;;;;-143.57;100.00;65101.44;5016703;28;45336;-43
2023/07/05 04:47:59;;;;;;;;;6.33;3.33;;;;;-143.57;100.00;65101.44;5017010;28;45326;-47
2023/07/05 04:50:25;;;;;;;;;4.00;4.00;;;;;-143.57;100.00;65101.44;5016670;28;46411;-61
2023/07/05 04:52:51;;;;;;;;;9.67;2.67;;;;;-143.57;100.00;65101.44;5016504;28;45430;-61
2023/07/05 04:55:16;;;;;;;;;7.00;4.67;;;;;-143.57;100.00;65101.44;5016676;28;45355;-57
2023/07/05 04:57:42;;;;;;;;;7.00;5.00;;;;;-143.57;100.00;65101.44;5019313;28;45396;-51
2023/07/05 05:00:08;;;;;;;;;7.00;4.33;;;;;-143.57;100.00;65101.44;5020011;28;46129;-61
2023/07/05 05:02:34;;;;;;;;;3.33;3.33;;;;;-143.57;100.00;65101.44;5020016;28;45260;-60
2023/07/05 05:05:00;;;;;;;;;6.00;6.00;;;;;-143.57;100.00;65101.44;5020137;28;45190;-52
2023/07/05 05:07:26;;;;;;;;;3.33;3.33;;;;;-143.57;100.00;65101.44;5020319;28;45404;-52
2023/07/05 05:09:51;;;;;;;;;3.67;3.67;;;;;-143.57;100.00;65101.44;5019964;28;46025;-60
2023/07/05 05:12:16;;;;;;;;;5.67;4.00;;;;;-143.57;100.00;65101.44;5019673;28;45222;-60
2023/07/05 05:14:42;;;;;;;;;10.00;4.33;;;;;-143.57;100.00;65101.44;5018901;28;46676;-64
2023/07/05 05:17:07;;;;;;;;;3.67;3.67;;;;;-143.57;100.00;65101.44;5018824;28;45374;-55
2023/07/05 05:19:32;;;;;;;;;5.00;3.33;;;;;-143.57;100.00;65101.44;5019661;28;47197;-44
2023/07/05 05:21:58;;;;;;;;;6.67;4.00;;;;;-143.57;100.00;65101.44;5019649;28;45374;-53
2023/07/05 05:24:23;;;;;;;;;8.00;5.67;;;;;-143.57;100.00;65101.44;5019420;28;45431;-59
2023/07/05 05:26:49;;;;;;;;;9.00;3.67;;;;;-143.57;100.00;65101.44;5018912;28;45315;-47
2023/07/05 05:29:14;;;;;;;;;10.33;5.00;;;;;-143.57;100.00;65101.44;5019155;28;46188;-51
2023/07/05 05:31:39;;;;;;;;;4.00;1.33;;;;;-143.57;100.00;65101.44;5019321;28;45438;-50
2023/07/05 05:34:05;;;;;;;;;9.00;3.00;;;;;-143.57;100.00;65101.44;5019521;28;45218;-47
2023/07/05 05:36:30;;;;;;;;;3.67;3.00;;;;;-143.57;100.00;65101.44;5019516;28;45463;-53
2023/07/05 05:38:55;;;;;;;;;5.67;3.67;;;;;-143.57;100.00;65101.44;5019065;28;46047;-51
2023/07/05 05:41:21;;;;;;;;;4.67;3.33;;;;;-143.57;100.00;65101.44;5019043;28;45434;-56
2023/07/05 05:43:50;;;;;;;;;4.00;3.33;;;;;-143.57;100.00;65101.44;5019335;28;45371;-51
2023/07/05 05:46:16;;;;;;;;;4.00;2.33;;;;;-143.57;100.00;65101.44;5019091;28;45359;-56
2023/07/05 05:48:41;;;;;;;;;2.00;1.00;;;;;-143.57;100.00;65101.44;5018818;28;45482;-45
2023/07/05 05:51:07;;;;;;;;;5.33;4.00;;;;;-143.57;100.00;65101.44;5018898;28;45382;-61
2023/07/05 05:53:32;;;;;;;;;9.00;4.00;;;;;-143.57;100.00;65101.44;5019129;28;45271;-62
2023/07/05 05:55:58;;;;;;;;;5.33;4.00;;;;;-143.57;100.00;65101.44;5019195;28;45315;-43
2023/07/05 05:58:23;;;;;;;;;4.00;4.00;;;;;-143.57;100.00;65101.44;5018727;28;45467;-62
2023/07/05 06:00:49;;;;;;;;;5.33;4.00;;;;;-143.57;100.00;65101.44;5018902;28;45444;-52
2023/07/05 06:03:15;;;;;;;;;7.00;5.33;;;;;-143.57;100.00;65101.44;5018225;28;45343;-44
2023/07/05 06:05:43;;;;;;;;;6.67;3.00;;;;;-143.57;100.00;65101.44;5018914;28;45359;-59
2023/07/05 06:08:09;;;;;;;;;6.33;4.00;;;;;-143.57;100.00;65101.44;5017684;28;45311;-50
2023/07/05 06:10:34;;;;;;;;;6.00;5.33;;;;;-143.57;100.00;65101.44;5018578;28;45407;-53
2023/07/05 06:13:00;;;;;;;;;3.00;3.00;;;;;-143.57;100.00;65101.44;5018503;28;45805;-56
2023/07/05 06:15:25;;;;;;;;;10.00;6.00;;;;;-143.57;100.00;65101.44;5018546;28;45423;-49
2023/07/05 06:17:52;;;;;;;;;5.67;5.67;;;;;-143.57;100.00;65101.44;5018311;28;46127;-43
2023/07/05 06:20:17;;;;;;;;;5.00;3.00;;;;;-143.57;100.00;65101.44;5018667;28;45359;-51
2023/07/05 06:22:43;;;;;;;;;6.33;4.00;;;;;-143.57;100.00;65101.44;5018659;28;45836;-49
2023/07/05 06:25:12;;;;;;;;;5.67;5.00;;;;;-143.57;100.00;65101.44;5018770;28;45355;-54
2023/07/05 06:27:38;;;;;;;;;3.67;3.33;;;;;-143.57;100.00;65101.44;5018481;28;45623;-55
2023/07/05 06:30:04;;;;;;;;;5.33;5.33;;;;;-143.57;100.00;65101.44;5018558;28;45260;-57
2023/07/05 06:32:29;;;;;;;;;8.67;3.33;;;;;-143.57;100.00;65101.44;5018421;28;45328;-48
2023/07/05 06:34:55;;;;;;;;;4.50;4.00;;;;;-143.57;100.00;65101.44;5018755;28;45239;-46
2023/07/05 06:37:20;;;;;;;;;4.50;4.00;;;;;-143.57;100.00;65101.44;5018500;28;45313;-42
2023/07/05 06:39:45;;;;;;;;;4.00;4.00;;;;;-143.57;100.00;65101.44;5018370;28;45221;-56
2023/07/05 06:42:11;;;;;;;;;5.25;3.75;;;;;-143.57;100.00;65101.44;5018306;28;45290;-59
2023/07/05 06:44:36;;;;;;;;;3.50;3.50;;;;;-143.57;100.00;65101.44;5018754;28;45672;-46
2023/07/05 06:47:01;;;;;;;;;6.00;5.75;;;;;-143.57;100.00;65101.44;5018292;28;45311;-43
2023/07/05 06:49:27;;;;;;;;;4.00;2.75;;;;;-143.57;100.00;65101.44;5018181;28;45224;-44
2023/07/05 06:51:53;;;;;;;;;3.75;3.25;;;;;-143.57;100.00;65101.44;5018397;28;45264;-57
2023/07/05 06:54:20;;;;;;;;;7.50;4.50;;;;;-143.57;100.00;65101.44;5018417;28;45364;-59
2023/07/05 06:56:45;;;;;;;;;7.75;4.50;;;;;-143.57;100.00;65101.44;5017740;28;45429;-51
2023/07/05 06:59:11;;;;;;;;;4.75;3.00;;;;;-143.57;100.00;65101.44;5016912;28;45330;-48
2023/07/05 07:01:36;;;;;;;;;6.00;4.75;;;;;-143.57;100.00;65101.44;5018136;28;45409;-44
2023/07/05 07:04:06;;;;;;;;;12.00;6.25;;;;;-143.57;100.00;65101.44;5018244;28;45479;-44
2023/07/05 07:06:33;;;;;;;;;4.75;3.25;;;;;-143.57;100.00;65101.44;5017943;28;45939;-50
2023/07/05 07:08:58;;;;;;;;;7.75;4.75;;;;;-143.57;100.00;65101.44;5017847;28;45402;-45
2023/07/05 07:11:24;;;;;;;;;5.00;3.50;;;;;-143.57;100.00;65101.44;5017685;28;45698;-48
2023/07/05 07:13:49;;;;;;;;;4.25;4.25;;;;;-143.57;100.00;65101.44;5017921;28;45419;-44
2023/07/05 07:16:16;;;;;;;;;7.25;3.50;;;;;-143.57;100.00;65101.44;5017324;28;45426;-47
2023/07/05 07:18:45;;;;;;;;;6.75;5.50;;;;;-143.57;100.00;65101.44;5017713;28;45461;-51
2023/07/05 07:21:10;;;;;;;;;8.75;4.00;;;;;-143.57;100.00;65101.44;5017734;28;45266;-55
2023/07/05 07:23:36;;;;;;;;;9.00;4.00;;;;;-143.57;100.00;65101.44;5017787;28;45310;-55
2023/07/05 07:26:04;;;;;;;;;6.00;4.75;;;;;-143.57;100.00;65101.44;5017160;28;46041;-47
2023/07/05 07:28:30;;;;;;;;;3.00;3.00;;;;;-143.57;100.00;65101.44;5017721;28;45428;-52
2023/07/05 07:30:56;;;;;;;;;3.75;3.00;;;;;-143.57;100.00;65101.44;5017804;28;45362;-60
2023/07/05 07:33:21;;;;;;;;;4.50;3.00;;;;;-143.57;100.00;65101.44;5017626;28;45319;-59
2023/07/05 07:35:48;;;;;;;;;5.75;3.75;;;;;-143.57;100.00;65101.44;5017321;28;45872;-50
2023/07/05 07:38:14;;;;;;;;;4.20;3.40;;;;;-143.57;100.00;65101.44;5016444;28;45327;-57
2023/07/05 07:40:40;;;;;;;;;4.25;3.25;;;;;-143.57;100.00;65101.44;5017515;28;45436;-57
2023/07/05 07:43:06;;;;;;;;;4.25;2.75;;;;;-143.57;100.00;65101.44;5017289;28;45241;-57
2023/07/05 07:45:32;;;;;;;;;3.25;2.75;;;;;-143.57;100.00;65101.44;4998917;28;46142;-58
2023/07/05 07:47:58;;;;;;;;;5.00;2.00;;;;;-143.57;100.00;65101.44;5017219;28;45340;-56
2023/07/05 07:50:24;;;;;;;;;5.80;3.80;;;;;-143.57;100.00;65101.44;5017285;28;45429;-61
2023/07/05 07:52:49;;;;;;;;;2.50;0.75;;;;;-143.57;100.00;65101.44;5017430;28;45376;-53
2023/07/05 07:55:14;;;;;;;;;4.75;4.00;;;;;-143.57;100.00;65101.44;5016865;28;51172;-47
2023/07/05 07:57:40;;;;;;;;;3.50;2.00;;;;;-143.57;100.00;65101.44;5018256;28;45343;-60
2023/07/05 08:00:09;;;;;;;;;4.25;2.00;;;;;-143.57;100.00;65101.44;5037172;28;45308;-47
2023/07/05 08:02:35;;;;;;;;;4.60;4.00;;;;;-143.57;100.00;65101.44;5037007;28;45402;-58
2023/07/05 08:05:00;;;;;;;;;5.00;5.00;;;;;-143.57;100.00;65101.44;5036148;28;46277;-61
2023/07/05 08:07:26;;;;;;;;;4.25;4.00;;;;;-143.57;100.00;65101.44;5036557;28;45371;-62
2023/07/05 08:09:55;;;;;;;;;4.50;3.25;;;;;-143.57;100.00;65101.44;5036863;28;45224;-62
2023/07/05 08:12:20;;;;;;;;;4.60;3.00;;;;;-143.57;100.00;65101.44;5036810;28;45530;-57
2023/07/05 08:14:45;;;;;;;;;8.50;4.00;;;;;-143.57;100.00;65101.44;5036181;28;47174;-60
2023/07/05 08:17:10;;;;;;;;;5.50;4.00;;;;;-143.57;100.00;65101.44;5018999;28;45511;-52
2023/07/05 08:19:36;;;;;;;;;5.00;3.50;;;;;-143.57;100.00;65101.44;5019140;28;45527;-55
2023/07/05 08:22:02;;;;;;;;;3.75;1.50;;;;;-143.57;100.00;65101.44;5036802;28;45381;-43
2023/07/05 08:24:28;;;;;;;;;3.80;3.20;;;;;-143.57;100.00;65101.44;5036609;28;46078;-57
2023/07/05 08:26:54;;;;;;;;;3.00;3.00;;;;;-143.57;100.00;65101.44;5036269;28;45171;-51
2023/07/05 08:29:20;;;;;;;;;3.25;2.00;;;;;-143.57;100.00;65101.44;5036423;28;45418;-44
2023/07/05 08:31:46;;;;;;;;;2.00;2.00;;;;;-143.57;100.00;65101.44;5036009;28;45403;-52
2023/07/05 08:34:12;;;;;;;;;3.60;3.60;;;;;-143.57;100.00;65101.44;5035545;28;45482;-47
2023/07/05 08:36:39;;;;;;;;;4.75;3.50;;;;;-143.57;100.00;65101.44;5036633;28;45303;-55
2023/07/05 08:39:06;;;;;;;;;5.00;3.60;;;;;-143.57;100.00;65101.44;5036483;28;45326;-55
2023/07/05 08:41:44;;;;;;;;;4.40;2.40;;;;;-143.57;100.00;65101.44;5036580;28;45582;-59
2023/07/05 08:44:40;;;;;;;;;3.00;3.00;;;;;-143.57;100.00;65101.44;5036420;28;46074;-57
2023/07/05 08:47:08;;;;;;;;;3.60;3.40;;;;;-143.57;100.00;65101.44;5036522;28;45406;-64
2023/07/05 08:49:44;;;;;;;;;5.40;3.00;;;;;-143.57;100.00;65101.44;5036553;28;45465;-57
2023/07/05 08:52:29;;;;;;;;;2.80;2.80;;;;;-143.57;100.00;65101.44;5036614;28;45369;-63
2023/07/05 08:55:02;;;;;;;;;5.00;4.20;;;;;-143.57;100.00;65101.44;5036225;28;47062;-60
2023/07/05 08:57:33;;;;;;;;;5.80;3.00;;;;;-143.57;100.00;65101.44;5035703;28;45196;-55
2023/07/05 09:00:11;;;;;;;;;4.20;4.20;;;;;-143.57;100.00;65101.44;5036162;28;45361;-62
2023/07/05 09:02:36;;;;;;;;;3.25;2.50;;;;;-143.57;100.00;65101.44;5036485;28;45441;-62
2023/07/05 09:05:01;;;;;;;;;2.50;2.50;;;;;-143.57;100.00;65101.44;5034782;28;45793;-63
2023/07/05 09:07:53;;;;;;;;;4.50;3.50;;;;;-143.57;100.00;65101.44;5036241;28;45216;-63
2023/07/05 09:10:28;;;;;;;;;3.60;3.00;;;;;-143.57;100.00;65101.44;5031222;28;45396;-57
2023/07/05 09:13:41;;;;;;;;;3.00;3.00;;;;;-143.57;100.00;65101.44;5036305;28;45331;-62
2023/07/05 09:16:19;;;;;;;;;7.00;4.75;;;;;-143.57;100.00;65101.44;4934995;28;46428;-57
2023/07/05 09:19:24;;;;;;;;;4.00;2.80;;;;;-143.57;100.00;65101.44;4935682;28;45322;-53
2023/07/05 09:21:58;;;;;;;;;3.80;3.80;;;;;-143.57;100.00;65101.44;4935293;28;45304;-60
2023/07/05 09:24:36;;;;;;;;;3.50;3.50;;;;;-143.57;100.00;65101.44;4935759;28;45227;-53
2023/07/05 09:27:16;;;;;;;;;3.40;2.00;;;;;-143.57;100.00;65101.44;4935335;28;45365;-59
2023/07/05 09:29:50;;;;;;;;;3.20;3.00;;;;;-143.57;100.00;65101.44;4934963;28;45530;-61
2023/07/05 09:32:27;;;;;;;;;3.00;2.40;;;;;-143.57;100.00;65101.44;4935569;28;45531;-63
2023/07/05 09:34:58;;;;;;;;;4.00;4.00;;;;;-143.57;100.00;65101.44;4935718;28;45478;-59
2023/07/05 09:37:31;;;;;;;;;5.80;3.20;;;;;-143.57;100.00;65101.44;4935298;28;46298;-60
2023/07/05 09:40:00;;;;;;;;;5.00;3.00;;;;;-143.57;100.00;65101.44;4935361;28;45347;-63
2023/07/05 09:42:35;;;;;;;;;3.20;3.00;;;;;-143.57;100.00;65101.44;4935279;28;45444;-62
2023/07/05 09:45:00;;;;;;;;;5.40;4.00;;;;;-143.57;100.00;65101.44;4938476;28;45494;-60
2023/07/05 09:47:26;;;;;;;;;4.50;3.00;;;;;-143.57;100.00;65101.44;5018299;28;47052;-60
2023/07/05 09:49:52;;;;;;;;;4.00;4.00;;;;;-143.57;100.00;65101.44;5038216;28;45282;-56
2023/07/05 09:52:23;;;;;;;;;4.00;3.00;;;;;-143.57;100.00;65101.44;5038914;28;46075;-52
2023/07/05 09:54:56;;;;;;;;;5.20;3.40;;;;;-143.57;100.00;65101.44;5039400;28;45369;-58
2023/07/05 09:57:24;;;;;;;;;5.40;4.20;;;;;-143.57;100.00;65101.44;5038972;28;46401;-58
2023/07/05 09:59:52;;;;;;;;;3.60;3.00;;;;;-143.57;100.00;65101.44;5038720;28;45575;-55
2023/07/05 10:02:22;;;;;;;;;1.40;1.40;;;;;-143.57;100.00;65101.44;5039194;28;45396;-59
2023/07/05 10:04:50;;;;;;;;;2.80;2.80;;;;;-143.57;100.00;65101.44;5038894;28;45336;-51
2023/07/05 10:07:18;;;;;;;;;2.80;2.60;;;;;-143.57;100.00;65101.44;5038853;28;45371;-52
2023/07/05 10:09:54;;;;;;;;;2.40;2.00;;;;;-143.57;100.00;65101.44;5038884;28;45406;-63
2023/07/05 10:12:22;;;;;;;;;3.40;3.40;;;;;-143.57;100.00;65101.44;5038276;28;45638;-58
2023/07/05 10:14:54;;;;;;;;;6.00;2.40;;;;;-143.57;100.00;65101.44;5038464;28;45236;-63
2023/07/05 10:17:20;;;;;;;;;3.40;3.40;;;;;-143.57;100.00;65101.44;5038542;28;45240;-60
2023/07/05 10:19:55;;;;;;;;;4.25;4.25;;;;;-143.57;100.00;65101.44;5038497;28;45724;-51
2023/07/05 10:22:35;;;;;;;;;7.00;6.60;;;;;-143.57;100.00;65101.44;5038673;28;45383;-60
2023/07/05 10:25:05;;;;;;;;;7.00;7.00;;;;;-143.57;100.00;65101.44;5039063;28;45357;-56
2023/07/05 10:27:36;;;;;;;;;6.40;4.00;;;;;-143.57;100.00;65101.44;5020303;28;47356;-59
2023/07/05 10:30:06;;;;;;;;;3.00;3.00;;;;;-143.57;100.00;65101.44;5038268;28;45465;-43
2023/07/05 10:32:32;;;;;;;;;3.60;3.60;;;;;-143.57;100.00;65101.44;5038479;28;45548;-41
2023/07/05 10:35:00;;;;;;;;;3.75;3.75;;;;;-143.57;100.00;65101.44;5038481;28;45507;-57
2023/07/05 10:37:28;;;;;;;;;5.20;4.20;;;;;-143.57;100.00;65101.44;5036687;28;46453;-48
2023/07/05 10:39:54;;;;;;;;;3.20;3.20;;;;;-143.57;100.00;65101.44;5038148;28;45364;-50
2023/07/05 10:42:20;;;;;;;;;3.75;3.75;;;;;-143.57;100.00;65101.44;5038189;28;45317;-46
2023/07/05 10:44:45;;;;;;;;;4.60;3.00;;;;;-143.57;100.00;65101.44;5038232;28;45393;-49
2023/07/05 10:47:13;;;;;;;;;5.25;3.50;;;;;-143.57;100.00;65101.44;5037452;28;46257;-43
2023/07/05 10:49:40;;;;;;;;;4.20;4.00;;;;;-143.57;100.00;65101.44;5038209;28;45358;-46
2023/07/05 10:52:11;;;;;;;;;5.00;2.60;;;;;-143.57;100.00;65101.44;5038230;28;45286;-46
2023/07/05 10:54:55;;;;;;;;;3.00;3.00;;;;;-143.57;100.00;65101.44;5037831;28;45400;-42
2023/07/05 10:57:32;;;;;;;;;3.60;2.00;;;;;-143.57;100.00;65101.44;5037743;28;46521;-54
2023/07/05 11:00:12;;;;;;;;;2.60;2.60;;;;;-143.57;100.00;65101.44;5037728;28;45479;-57
2023/07/05 11:02:44;;;;;;;;;4.60;3.00;;;;;-143.57;100.00;65101.44;5037921;28;45415;-48
2023/07/05 11:05:33;;;;;;;;;4.00;4.00;;;;;-143.57;100.00;65101.44;5038190;28;45291;-46
2023/07/05 11:08:01;;;;;;;;;3.40;3.20;;;;;-143.57;100.00;65101.44;5037716;28;45444;-51
2023/07/05 11:10:38;;;;;;;;;2.80;2.60;;;;;-143.57;100.00;65101.44;5037571;28;45369;-53
2023/07/05 11:13:05;;;;;;;;;4.40;3.80;;;;;-143.57;100.00;65101.44;5037759;28;45645;-52
2023/07/05 11:15:32;;;;;;;;;2.20;2.20;;;;;-143.57;100.00;65101.44;5037557;28;45485;-53